メインページ
METAR-TAF:

METAR-TAF

空港 :

リヤド, サウジアラビア

緯度: 24-43N, 経度: 046-44E, 海抜: 635m

METAR: 見つかりません

時間: 07:21 (04:21 UTC)

予報

当レポートは5時間21分前の23:00(UTC)に作成
予報は22日の 00時(UTC)から 23日の 06時(UTC)まで有効
の風 8kt、最大18ktの突風を伴う
視程: 7000m
高度4000ftの雲は散在している
22日の 00時(UTC)から 22日の 06時(UTC)まで一時的に
視程: 4000m
高度3500ftの雲はほとんどない, 積乱雲.
高度4000ftの千切れ雲あり
22日の 06時(UTC)から 22日の 08時(UTC)まで徐々に
東/北東の風 10kt、最大25ktの突風を伴う
22日の 06時(UTC)から 22日の 18時(UTC)まで一時的に
視程: 3500m
広範な塵, 風塵
確率 30% :
22日の 06時(UTC)から 22日の 14時(UTC)まで一時的に
視程: 0800m
風砂

TAF: OERY 212300Z 2200/2306 35008G18KT 7000 SCT040 TEMPO 2200/2206 4000 FEW035CB BKN040 BECMG 2206/2208 07010G25KT TEMPO 2206/2218 3500 DU BLDU PROB30 TEMPO 2206/2214 0800 BLSA

4,000以上の空港の気象観測と天気予報(METAR報とTAF報)

利用可能な観測所は地図上に黄色い丸と赤い丸で示す。

丸の上にカーソルを重ねると観測所名を参照できる。

次にクリックすると気象観測と天気予報を参照できる。

マップの切り替え:黒色「×」印の緑ボタンをクリックして拡大、「-」印の緑ボタンをクリックして縮小、緑色の三角印をクリックして隣りの地図に切り替え


METAR-TAF: